createdAt,value
2023-05-26T00:00:15.201Z,78.92
2023-05-26T00:02:45.362Z,78.95
2023-05-26T00:05:15.743Z,78.90
2023-05-26T00:07:43.537Z,79.11
2023-05-26T00:10:13.960Z,79.20
2023-05-26T00:12:41.948Z,79.22
2023-05-26T00:15:14.033Z,79.06
2023-05-26T00:17:41.769Z,79.14
2023-05-26T00:20:09.706Z,79.38
2023-05-26T00:22:37.136Z,79.28
2023-05-26T00:25:07.878Z,79.41
2023-05-26T00:27:35.408Z,79.36
2023-05-26T00:30:03.598Z,79.43
2023-05-26T00:32:31.030Z,79.17
2023-05-26T00:34:58.504Z,79.59
2023-05-26T00:37:25.874Z,79.41
2023-05-26T00:39:53.114Z,79.54
2023-05-26T00:42:20.768Z,79.46
2023-05-26T00:44:50.316Z,79.10
2023-05-26T00:47:18.491Z,79.34
2023-05-26T00:49:47.806Z,79.34
2023-05-26T00:52:15.255Z,79.17
2023-05-26T00:54:46.137Z,79.48
2023-05-26T00:57:13.802Z,79.23
2023-05-26T00:59:42.414Z,79.48
2023-05-26T01:05:07.522Z,79.55
2023-05-26T01:07:34.902Z,79.58
2023-05-26T01:10:02.107Z,79.66
2023-05-26T01:12:44.450Z,79.82
2023-05-26T01:15:17.207Z,79.62
2023-05-26T01:18:10.679Z,79.55
2023-05-26T01:20:47.504Z,79.79
2023-05-26T01:23:23.874Z,79.73
2023-05-26T01:26:17.342Z,79.60
2023-05-26T01:28:46.270Z,79.77
2023-05-26T01:31:15.238Z,79.87
2023-05-26T01:33:42.801Z,79.90
2023-05-26T01:36:10.516Z,80.13
2023-05-26T01:38:38.233Z,80.01
2023-05-26T01:41:44.498Z,79.86
2023-05-26T01:44:33.392Z,79.83
2023-05-26T01:47:02.939Z,80.07
2023-05-26T01:49:31.153Z,79.99
2023-05-26T01:52:01.683Z,79.59
2023-05-26T01:54:35.653Z,79.72
2023-05-26T01:57:12.555Z,79.86
2023-05-26T01:59:39.913Z,79.90
2023-05-26T02:02:08.049Z,79.80
2023-05-26T02:04:36.325Z,79.97
2023-05-26T02:07:07.617Z,79.93
2023-05-26T02:09:35.254Z,80.07
2023-05-26T02:12:04.503Z,80.01
2023-05-26T02:14:32.534Z,80.18
2023-05-26T02:17:00.483Z,80.27
2023-05-26T02:19:29.284Z,80.22
2023-05-26T02:21:57.972Z,80.30
2023-05-26T02:24:25.136Z,79.92
2023-05-26T02:26:52.870Z,79.84
2023-05-26T02:29:20.568Z,79.89
2023-05-26T02:31:47.933Z,79.61
2023-05-26T02:34:15.756Z,79.69
2023-05-26T02:36:43.241Z,79.88
2023-05-26T02:39:10.692Z,79.75
2023-05-26T02:41:38.183Z,79.97
2023-05-26T02:44:07.907Z,79.81
2023-05-26T02:46:35.322Z,79.90
2023-05-26T02:49:02.902Z,79.90
2023-05-26T02:51:30.307Z,79.75
2023-05-26T02:53:58.109Z,79.84
2023-05-26T02:56:25.420Z,80.00
2023-05-26T02:58:52.973Z,79.96
2023-05-26T03:01:20.373Z,79.96
2023-05-26T03:03:47.805Z,79.69
2023-05-26T03:06:15.204Z,79.82
2023-05-26T03:08:42.853Z,79.69
2023-05-26T03:11:11.584Z,79.77
2023-05-26T03:13:40.182Z,79.84
2023-05-26T03:16:07.964Z,79.92
2023-05-26T03:18:35.670Z,80.25
2023-05-26T03:21:06.008Z,80.30
2023-05-26T03:23:37.001Z,80.16
2023-05-26T03:26:06.740Z,80.28
2023-05-26T03:28:34.074Z,80.02
2023-05-26T03:31:03.099Z,80.16
2023-05-26T03:33:33.045Z,79.96
2023-05-26T03:36:02.224Z,80.31
2023-05-26T03:38:30.885Z,80.13
2023-05-26T03:40:59.755Z,80.43
2023-05-26T03:43:28.399Z,80.31
2023-05-26T03:45:55.938Z,80.48
2023-05-26T03:48:23.665Z,80.45
2023-05-26T03:50:51.233Z,80.36
2023-05-26T03:53:19.257Z,80.39
2023-05-26T03:55:46.871Z,80.67
2023-05-26T03:58:15.088Z,80.80
2023-05-26T04:00:42.951Z,80.92
2023-05-26T04:03:11.952Z,81.12
2023-05-26T04:05:41.145Z,80.83
2023-05-26T04:08:29.395Z,80.94
2023-05-26T04:10:57.722Z,80.88
2023-05-26T04:13:26.281Z,81.02
2023-05-26T04:15:57.842Z,80.92
2023-05-26T04:18:28.301Z,81.10
2023-05-26T04:20:55.794Z,81.20
2023-05-26T04:23:23.261Z,81.19
2023-05-26T04:25:52.101Z,81.42
2023-05-26T04:28:20.201Z,81.40
2023-05-26T04:30:49.124Z,81.02
2023-05-26T04:33:17.185Z,81.08
2023-05-26T04:35:46.379Z,81.03
2023-05-26T04:38:15.580Z,81.31
2023-05-26T04:40:46.762Z,81.15
2023-05-26T04:43:14.899Z,81.41
2023-05-26T04:45:44.118Z,81.61
2023-05-26T04:48:13.192Z,81.40
2023-05-26T04:50:42.555Z,81.47
2023-05-26T04:53:10.392Z,81.73
2023-05-26T04:55:38.017Z,81.42
2023-05-26T04:58:09.168Z,81.81
2023-05-26T05:00:36.887Z,81.30
2023-05-26T05:03:06.067Z,81.63
2023-05-26T05:05:33.728Z,81.70
2023-05-26T05:08:02.010Z,81.67
2023-05-26T05:10:29.653Z,81.67
2023-05-26T05:12:57.211Z,81.57
2023-05-26T05:15:25.274Z,81.77
2023-05-26T05:17:53.105Z,81.49
2023-05-26T05:20:20.905Z,81.64
2023-05-26T05:22:48.459Z,81.65
2023-05-26T05:25:15.730Z,81.54
2023-05-26T05:27:42.974Z,81.67
2023-05-26T05:30:11.028Z,81.58
2023-05-26T05:32:38.447Z,81.31
2023-05-26T05:35:06.665Z,81.23
2023-05-26T05:37:34.226Z,81.21
2023-05-26T05:40:01.722Z,81.22
2023-05-26T05:42:29.272Z,81.19
2023-05-26T05:44:56.671Z,80.96
2023-05-26T05:47:24.450Z,80.81
2023-05-26T05:49:52.925Z,80.86
2023-05-26T05:52:42.179Z,80.78
2023-05-26T05:55:45.553Z,80.56
2023-05-26T05:58:12.798Z,80.32
2023-05-26T06:00:40.134Z,80.55
2023-05-26T06:03:07.957Z,80.47
2023-05-26T06:05:36.162Z,80.51
2023-05-26T06:08:13.470Z,80.40
2023-05-26T06:10:42.233Z,79.95
2023-05-26T06:13:10.117Z,80.11
2023-05-26T06:16:31.372Z,80.09
2023-05-26T06:19:01.493Z,80.10
2023-05-26T06:21:50.747Z,80.08
2023-05-26T06:24:19.197Z,79.64
2023-05-26T06:27:15.160Z,79.31
2023-05-26T06:29:46.222Z,78.72
2023-05-26T06:32:31.285Z,78.40
2023-05-26T06:34:58.825Z,78.17
2023-05-26T06:38:26.386Z,77.97
2023-05-26T06:41:25.327Z,77.76
2023-05-26T06:44:19.456Z,77.50
2023-05-26T06:46:59.202Z,76.54
2023-05-26T06:49:27.299Z,76.27
2023-05-26T06:51:56.544Z,76.21
2023-05-26T06:55:17.762Z,75.18
2023-05-26T06:58:26.006Z,75.19
2023-05-26T07:01:54.191Z,75.23
2023-05-26T07:05:45.030Z,75.29
2023-05-26T07:09:29.062Z,73.84
2023-05-26T07:12:57.388Z,73.98
2023-05-26T07:15:54.045Z,73.03
2023-05-26T07:18:28.785Z,72.46
2023-05-26T07:21:55.764Z,72.29
2023-05-26T07:25:02.952Z,71.79
2023-05-26T07:32:34.975Z,71.74
2023-05-26T07:36:24.263Z,71.20
2023-05-26T07:39:33.198Z,70.44
2023-05-26T07:42:52.158Z,70.34
2023-05-26T07:45:21.723Z,70.40
2023-05-26T07:48:49.378Z,70.06
2023-05-26T07:52:16.746Z,69.02
2023-05-26T07:55:53.943Z,69.40
2023-05-26T07:59:42.802Z,68.89
2023-05-26T08:03:10.471Z,68.32
2023-05-26T08:06:37.780Z,67.71
2023-05-26T08:09:28.526Z,66.60
2023-05-26T08:12:37.461Z,65.89
2023-05-26T08:15:36.083Z,66.43
2023-05-26T08:18:52.341Z,65.16
2023-05-26T08:22:19.934Z,65.89
2023-05-26T08:25:31.313Z,65.04
2023-05-26T08:28:11.714Z,65.12
2023-05-26T08:30:39.298Z,64.35
2023-05-26T08:33:07.742Z,63.77
2023-05-26T08:36:15.621Z,63.38
2023-05-26T08:38:43.192Z,63.36
2023-05-26T08:41:15.442Z,61.73
2023-05-26T08:44:06.286Z,62.44
2023-05-26T08:46:37.292Z,62.32
2023-05-26T08:49:21.457Z,62.44
2023-05-26T08:52:20.326Z,61.90
2023-05-26T08:54:50.021Z,60.92
2023-05-26T08:57:20.829Z,60.25
2023-05-26T08:59:53.637Z,59.97
2023-05-26T09:02:22.668Z,59.71
2023-05-26T09:04:55.309Z,59.61
2023-05-26T09:07:26.261Z,59.63
2023-05-26T09:09:56.073Z,59.27
2023-05-26T09:12:24.016Z,59.80
2023-05-26T09:14:51.497Z,59.07
2023-05-26T09:17:39.957Z,59.27
2023-05-26T09:20:13.172Z,59.69
2023-05-26T09:22:43.576Z,59.04
2023-05-26T09:25:10.910Z,59.02
2023-05-26T09:27:38.532Z,59.53
2023-05-26T09:30:08.620Z,59.82
2023-05-26T09:32:36.715Z,60.10
2023-05-26T09:35:16.167Z,60.31
2023-05-26T09:37:44.705Z,60.19
2023-05-26T09:40:28.643Z,60.14
2023-05-26T09:42:56.426Z,59.88
2023-05-26T09:45:44.826Z,59.49
2023-05-26T09:48:58.919Z,59.16
2023-05-26T09:51:38.476Z,58.93
2023-05-26T09:54:06.663Z,59.00
2023-05-26T09:56:45.304Z,58.30
2023-05-26T09:59:36.613Z,57.81
2023-05-26T10:02:36.552Z,57.24
2023-05-26T10:05:08.276Z,56.81
2023-05-26T10:07:38.208Z,55.52
2023-05-26T10:11:05.295Z,55.20
2023-05-26T10:13:53.624Z,54.15
2023-05-26T10:16:23.952Z,54.54
2023-05-26T10:18:51.782Z,53.11
2023-05-26T10:22:01.390Z,53.35
2023-05-26T10:24:37.123Z,52.62
2023-05-26T10:27:12.981Z,52.69
2023-05-26T10:30:03.301Z,52.62
2023-05-26T10:32:52.973Z,52.57
2023-05-26T10:35:25.523Z,52.24
2023-05-26T10:37:57.994Z,53.51
2023-05-26T10:40:35.231Z,53.95
2023-05-26T10:43:12.269Z,53.30
2023-05-26T10:46:00.113Z,53.52
2023-05-26T10:48:37.161Z,52.73
2023-05-26T10:51:04.411Z,52.77
2023-05-26T10:53:34.214Z,52.92
2023-05-26T10:56:10.250Z,53.02
2023-05-26T10:58:52.483Z,53.58
2023-05-26T11:01:30.191Z,53.30
2023-05-26T11:04:10.550Z,53.27
2023-05-26T11:06:52.223Z,52.84
2023-05-26T11:09:24.344Z,52.93
2023-05-26T11:11:57.108Z,53.36
2023-05-26T11:14:35.072Z,52.92
2023-05-26T11:17:06.243Z,53.08
2023-05-26T11:19:37.294Z,53.54
2023-05-26T11:22:24.340Z,53.31
2023-05-26T11:24:52.954Z,52.89
2023-05-26T11:27:20.208Z,53.30
2023-05-26T11:30:51.740Z,52.41
2023-05-26T11:33:23.106Z,51.76
2023-05-26T11:35:51.410Z,50.58
2023-05-26T11:38:20.874Z,51.29
2023-05-26T11:40:51.540Z,50.90
2023-05-26T11:43:25.757Z,49.77
2023-05-26T11:45:56.813Z,49.41
2023-05-26T11:48:25.374Z,48.92
2023-05-26T11:50:55.302Z,48.96
2023-05-26T11:53:24.569Z,49.35
2023-05-26T11:56:02.448Z,49.94
2023-05-26T11:58:29.958Z,49.31
2023-05-26T12:01:02.745Z,49.78
2023-05-26T12:03:35.297Z,50.16
2023-05-26T12:06:18.002Z,49.42
2023-05-26T12:08:56.951Z,49.08
2023-05-26T12:11:37.039Z,49.42
2023-05-26T12:14:07.810Z,49.49
2023-05-26T12:16:57.279Z,49.69
2023-05-26T12:19:29.190Z,49.28
2023-05-26T12:22:01.872Z,49.65
2023-05-26T12:24:35.226Z,49.58
2023-05-26T12:27:13.892Z,49.24
2023-05-26T12:29:44.672Z,49.46
2023-05-26T12:32:13.753Z,49.66
2023-05-26T12:34:45.532Z,48.94
2023-05-26T12:37:13.816Z,48.95
2023-05-26T12:40:04.844Z,48.97
2023-05-26T12:42:57.219Z,48.60
2023-05-26T12:46:09.863Z,48.92
2023-05-26T12:49:02.351Z,48.62
2023-05-26T12:51:36.920Z,47.80
2023-05-26T12:54:07.750Z,48.23
2023-05-26T12:56:47.782Z,48.99
2023-05-26T12:59:32.163Z,48.64
2023-05-26T13:02:00.776Z,48.17
2023-05-26T13:05:04.878Z,47.14
2023-05-26T13:07:54.280Z,47.02
2023-05-26T13:10:33.833Z,46.64
2023-05-26T13:13:22.056Z,47.04
2023-05-26T13:15:50.588Z,46.30
2023-05-26T13:18:22.598Z,46.49
2023-05-26T13:20:50.662Z,46.35
2023-05-26T13:23:18.396Z,45.87
2023-05-26T13:25:47.589Z,46.24
2023-05-26T13:28:15.817Z,45.82
2023-05-26T13:30:49.558Z,45.94
2023-05-26T13:34:07.915Z,45.55
2023-05-26T13:36:37.433Z,46.39
2023-05-26T13:39:50.700Z,46.35
2023-05-26T13:42:38.939Z,46.92
2023-05-26T13:45:10.727Z,46.04
2023-05-26T13:48:31.397Z,46.68
2023-05-26T13:51:09.279Z,47.15
2023-05-26T13:53:39.087Z,47.04
2023-05-26T13:57:11.436Z,46.45
2023-05-26T14:00:39.921Z,46.37
2023-05-26T14:03:53.323Z,45.99
2023-05-26T14:07:14.427Z,45.60
2023-05-26T14:10:34.717Z,45.25
2023-05-26T14:14:02.427Z,45.51
2023-05-26T14:17:07.695Z,45.68
2023-05-26T14:19:50.562Z,46.20
2023-05-26T14:22:31.683Z,45.63
2023-05-26T14:25:40.907Z,45.18
2023-05-26T14:28:28.961Z,46.03
2023-05-26T14:31:16.290Z,45.87
2023-05-26T14:34:28.158Z,45.97
2023-05-26T14:37:40.830Z,45.75
2023-05-26T14:40:22.284Z,45.65
2023-05-26T14:42:53.955Z,45.72
2023-05-26T14:45:21.483Z,45.81
2023-05-26T14:47:51.448Z,45.50
2023-05-26T14:51:00.556Z,45.37
2023-05-26T14:53:31.460Z,45.50
2023-05-26T14:56:05.311Z,45.64
2023-05-26T14:58:43.783Z,45.58
2023-05-26T15:01:12.056Z,45.18
2023-05-26T15:04:00.966Z,44.73
2023-05-26T15:06:32.697Z,45.03
2023-05-26T15:09:00.300Z,45.40
2023-05-26T15:11:28.615Z,45.47
2023-05-26T15:13:56.991Z,44.98
2023-05-26T15:16:25.008Z,44.52
2023-05-26T15:22:11.378Z,43.61
2023-05-26T15:25:17.920Z,43.52
2023-05-26T15:28:09.047Z,43.02
2023-05-26T15:31:25.236Z,42.47
2023-05-26T15:34:02.830Z,42.04
2023-05-26T15:36:58.527Z,41.82
2023-05-26T15:40:25.713Z,42.65
2023-05-26T15:43:34.817Z,42.48
2023-05-26T15:46:51.935Z,41.93
2023-05-26T15:49:59.639Z,41.31
2023-05-26T15:53:23.267Z,41.62
2023-05-26T15:57:02.602Z,40.82
2023-05-26T16:00:48.112Z,40.66
2023-05-26T16:03:22.604Z,39.88
2023-05-26T16:05:53.549Z,39.22
2023-05-26T16:08:42.534Z,39.01
2023-05-26T16:11:18.350Z,38.74
2023-05-26T16:14:45.323Z,38.66
2023-05-26T16:18:15.797Z,39.10
2023-05-26T16:21:47.035Z,39.37
2023-05-26T16:25:14.898Z,38.75
2023-05-26T16:29:02.408Z,38.70
2023-05-26T16:32:29.812Z,38.22
2023-05-26T16:35:57.835Z,38.25
2023-05-26T16:39:24.756Z,38.61
2023-05-26T16:42:56.381Z,38.55
2023-05-26T16:46:34.906Z,38.01
2023-05-26T16:50:02.716Z,38.31
2023-05-26T16:53:49.949Z,38.16
2023-05-26T16:57:37.095Z,37.94
2023-05-26T17:00:52.611Z,38.32
2023-05-26T17:04:19.777Z,38.35
2023-05-26T17:08:06.863Z,38.74
2023-05-26T17:11:53.824Z,38.93
2023-05-26T17:15:21.027Z,39.17
2023-05-26T17:18:46.646Z,38.89
2023-05-26T17:22:13.774Z,39.31
2023-05-26T17:25:41.306Z,39.53
2023-05-26T17:29:28.161Z,40.00
2023-05-26T17:35:24.047Z,40.44
2023-05-26T17:37:53.923Z,40.66
2023-05-26T17:40:23.955Z,41.07
2023-05-26T17:42:51.216Z,40.60
2023-05-26T17:45:18.643Z,40.66
2023-05-26T17:47:46.489Z,41.06
2023-05-26T17:50:55.474Z,40.28
2023-05-26T17:54:23.294Z,40.23
2023-05-26T17:57:23.778Z,40.34
2023-05-26T18:00:23.475Z,40.38
2023-05-26T18:03:53.186Z,40.76
2023-05-26T18:07:02.166Z,40.59
2023-05-26T18:10:30.394Z,40.61
2023-05-26T18:12:59.172Z,40.81
2023-05-26T18:16:02.899Z,41.13
2023-05-26T18:19:26.562Z,41.61
2023-05-26T18:22:54.025Z,41.96
2023-05-26T18:26:21.216Z,42.69
2023-05-26T18:29:46.089Z,42.99
2023-05-26T18:33:15.194Z,43.57
2023-05-26T18:36:30.711Z,43.69
2023-05-26T18:39:12.640Z,43.99
2023-05-26T18:42:02.540Z,44.23
2023-05-26T18:45:05.189Z,44.28
2023-05-26T18:48:22.810Z,44.57
2023-05-26T18:51:30.608Z,45.13
2023-05-26T18:54:40.562Z,45.45
2023-05-26T18:57:57.584Z,45.95
2023-05-26T19:01:25.707Z,46.28
2023-05-26T19:05:12.603Z,46.71
2023-05-26T19:08:21.224Z,47.18
2023-05-26T19:11:48.368Z,47.48
2023-05-26T19:14:43.452Z,47.96
2023-05-26T19:17:11.473Z,48.42
2023-05-26T19:19:41.272Z,48.39
2023-05-26T19:22:15.932Z,48.74
2023-05-26T19:24:48.379Z,48.91
2023-05-26T19:27:16.111Z,49.22
2023-05-26T19:29:45.007Z,49.27
2023-05-26T19:32:17.297Z,49.58
2023-05-26T19:35:03.022Z,49.73
2023-05-26T19:37:41.417Z,50.16
2023-05-26T19:40:20.681Z,50.52
2023-05-26T19:43:11.194Z,50.93
2023-05-26T19:45:47.792Z,51.05
2023-05-26T19:48:56.803Z,51.31
2023-05-26T19:52:03.984Z,51.85
2023-05-26T19:54:31.411Z,52.15
2023-05-26T19:57:43.278Z,52.24
2023-05-26T20:00:58.750Z,52.53
2023-05-26T20:04:10.863Z,52.82
2023-05-26T20:07:05.007Z,53.27
2023-05-26T20:10:04.305Z,53.76
2023-05-26T20:12:51.886Z,53.75
2023-05-26T20:15:50.805Z,54.15
2023-05-26T20:18:38.941Z,54.44
2023-05-26T20:22:06.227Z,54.53
2023-05-26T20:25:34.504Z,54.85
2023-05-26T20:28:23.346Z,55.11
2023-05-26T20:31:14.369Z,55.65
2023-05-26T20:34:27.311Z,55.64
2023-05-26T20:37:21.082Z,55.90
2023-05-26T20:40:33.141Z,56.21
2023-05-26T20:43:52.941Z,56.54
2023-05-26T20:47:15.060Z,56.50
2023-05-26T20:50:42.427Z,56.76
2023-05-26T20:53:52.263Z,57.35
2023-05-26T20:57:01.408Z,57.24
2023-05-26T20:59:53.762Z,57.12
2023-05-26T21:02:46.793Z,57.54
2023-05-26T21:05:25.910Z,57.69
2023-05-26T21:08:17.173Z,57.64
2023-05-26T21:10:45.498Z,57.90
2023-05-26T21:13:21.916Z,57.76
2023-05-26T21:15:59.727Z,58.01
2023-05-26T21:18:34.613Z,58.11
2023-05-26T21:21:04.870Z,58.32
2023-05-26T21:23:54.231Z,58.45
2023-05-26T21:26:24.287Z,58.49
2023-05-26T21:28:51.924Z,58.50
2023-05-26T21:31:43.010Z,58.61
2023-05-26T21:34:29.692Z,58.75
2023-05-26T21:36:59.601Z,59.01
2023-05-26T21:39:51.365Z,58.88
2023-05-26T21:42:44.647Z,59.22
2023-05-26T21:45:17.131Z,59.46
2023-05-26T21:48:07.327Z,59.79
2023-05-26T21:50:46.255Z,59.74
2023-05-26T21:53:17.264Z,59.82
2023-05-26T21:56:12.571Z,60.00
2023-05-26T21:59:06.192Z,60.13
2023-05-26T22:01:35.987Z,60.13
2023-05-26T22:04:04.345Z,60.46
2023-05-26T22:06:33.166Z,60.27
2023-05-26T22:09:00.711Z,60.53
2023-05-26T22:11:28.787Z,60.67
2023-05-26T22:13:56.599Z,60.78
2023-05-26T22:16:24.121Z,61.04
2023-05-26T22:18:51.750Z,60.93
2023-05-26T22:21:19.537Z,61.25
2023-05-26T22:23:47.612Z,61.25
2023-05-26T22:26:15.087Z,61.32
2023-05-26T22:28:43.255Z,61.35
2023-05-26T22:31:10.583Z,61.58
2023-05-26T22:33:37.953Z,61.62
2023-05-26T22:36:05.530Z,61.64
2023-05-26T22:38:32.990Z,61.86
2023-05-26T22:41:01.932Z,61.83
2023-05-26T22:43:29.690Z,62.01
2023-05-26T22:45:57.398Z,62.09
2023-05-26T22:48:25.618Z,62.28
2023-05-26T22:50:54.690Z,62.30
2023-05-26T22:53:22.353Z,62.45
2023-05-26T22:56:00.244Z,62.58
2023-05-26T22:58:33.239Z,62.59
2023-05-26T23:01:01.613Z,62.67
2023-05-26T23:03:29.348Z,62.82
2023-05-26T23:05:57.480Z,62.92
2023-05-26T23:08:24.957Z,63.01
2023-05-26T23:10:52.240Z,63.01
2023-05-26T23:13:22.262Z,63.16
2023-05-26T23:15:49.972Z,63.19
2023-05-26T23:18:17.317Z,63.44
2023-05-26T23:20:45.828Z,63.37
2023-05-26T23:23:14.161Z,63.47
2023-05-26T23:25:42.186Z,63.64
2023-05-26T23:28:09.724Z,63.68
2023-05-26T23:30:38.439Z,63.63
2023-05-26T23:33:05.976Z,63.71
2023-05-26T23:35:33.623Z,64.00
2023-05-26T23:38:03.211Z,64.05
2023-05-26T23:40:31.026Z,64.15
2023-05-26T23:43:00.081Z,64.22
2023-05-26T23:45:28.277Z,64.20
2023-05-26T23:47:56.682Z,64.34
2023-05-26T23:50:24.178Z,64.31
2023-05-26T23:52:51.823Z,64.49
2023-05-26T23:55:19.497Z,64.56
2023-05-26T23:57:48.032Z,64.43
